Time;durP1;ratioP1;P1;durP2;ratioP2;P2;SDS_P1;SDS_P2;PMS_P1;PMS_P2;Temp;Humidity;BMP_temperature;BMP_pressure;BME280_temperature;BME280_humidity;BME280_pressure;Samples;Min_cycle;Max_cycle;Signal;HPM_P1;HPM_P2
2022/01/12 00:00:12;;;;;;;37.23;19.57;;;;;;;;;;5076452;28;20447;-69
2022/01/12 00:02:39;;;;;;;36.47;18.97;;;;;;;;;;5075964;28;20447;-69
2022/01/12 00:05:08;;;;;;;37.67;18.80;;;;;;;;;;5076097;28;20478;-69
2022/01/12 00:07:36;;;;;;;38.27;21.63;;;;;;;;;;5076265;28;20447;-69
2022/01/12 00:10:03;;;;;;;46.07;20.97;;;;;;;;;;5076165;28;20805;-70
2022/01/12 00:12:30;;;;;;;37.07;18.63;;;;;;;;;;5075806;28;20454;-69
2022/01/12 00:14:57;;;;;;;37.70;17.90;;;;;;;;;;5075996;28;20467;-70
2022/01/12 00:17:24;;;;;;;41.03;18.03;;;;;;;;;;5076063;28;20487;-69
2022/01/12 00:19:51;;;;;;;36.60;17.93;;;;;;;;;;5075710;28;20451;-70
2022/01/12 00:22:19;;;;;;;39.70;19.40;;;;;;;;;;5074366;28;20925;-70
2022/01/12 00:25:05;;;;;;;41.10;20.33;;;;;;;;;;5075453;28;20546;-69
2022/01/12 00:33:10;;;;;;;41.53;20.07;;;;;;;;;;5075548;28;20407;-69
2022/01/12 00:35:37;;;;;;;38.67;19.50;;;;;;;;;;5075698;28;20631;-69
2022/01/12 00:38:07;;;;;;;39.40;19.60;;;;;;;;;;5075118;28;20484;-69
2022/01/12 00:40:34;;;;;;;46.13;21.20;;;;;;;;;;5075291;28;20440;-69
2022/01/12 00:43:01;;;;;;;47.33;18.50;;;;;;;;;;5075577;28;20794;-69
2022/01/12 00:45:28;;;;;;;44.20;18.40;;;;;;;;;;5075132;28;20487;-69
2022/01/12 00:47:55;;;;;;;41.30;18.20;;;;;;;;;;5075426;28;20452;-69
2022/01/12 00:50:23;;;;;;;41.80;18.10;;;;;;;;;;5075771;28;20948;-69
2022/01/12 00:52:50;;;;;;;40.43;17.50;;;;;;;;;;5075410;28;20459;-69
2022/01/12 00:55:18;;;;;;;38.57;16.80;;;;;;;;;;5075335;28;20502;-69
2022/01/12 00:57:45;;;;;;;33.63;17.67;;;;;;;;;;5074887;28;20496;-69
2022/01/12 01:00:13;;;;;;;44.17;18.70;;;;;;;;;;5075263;28;20811;-69
2022/01/12 01:02:40;;;;;;;40.37;17.53;;;;;;;;;;5074960;28;20436;-69
2022/01/12 01:05:08;;;;;;;35.27;18.93;;;;;;;;;;5075102;28;20468;-69
2022/01/12 01:07:35;;;;;;;31.43;17.93;;;;;;;;;;5074853;28;20454;-69
2022/01/12 01:10:05;;;;;;;34.03;15.30;;;;;;;;;;5074899;28;20936;-69
2022/01/12 01:12:34;;;;;;;31.33;16.83;;;;;;;;;;5075302;28;20554;-69
2022/01/12 01:15:05;;;;;;;31.20;17.83;;;;;;;;;;5074839;28;20873;-69
2022/01/12 01:25:48;;;;;;;33.47;16.57;;;;;;;;;;5074470;28;20446;-69
2022/01/12 01:28:17;;;;;;;34.07;15.17;;;;;;;;;;5074807;28;20929;-69
2022/01/12 01:30:45;;;;;;;32.80;15.67;;;;;;;;;;5074769;28;20440;-69
2022/01/12 01:33:16;;;;;;;38.90;19.47;;;;;;;;;;5073862;28;20451;-69
2022/01/12 01:35:46;;;;;;;31.97;15.50;;;;;;;;;;5074515;28;20471;-69
2022/01/12 01:38:14;;;;;;;36.93;17.43;;;;;;;;;;5074469;28;20468;-69
2022/01/12 01:40:42;;;;;;;33.00;18.13;;;;;;;;;;5074587;28;20438;-69
2022/01/12 01:43:19;;;;;;;30.30;16.80;;;;;;;;;;5074474;28;20440;-69
2022/01/12 01:54:03;;;;;;;29.93;16.80;;;;;;;;;;5073909;28;20457;-69
2022/01/12 01:56:30;;;;;;;29.20;16.57;;;;;;;;;;5074078;28;20475;-69
2022/01/12 01:58:57;;;;;;;34.30;17.30;;;;;;;;;;5074300;28;20483;-70
2022/01/12 02:01:28;;;;;;;37.63;17.73;;;;;;;;;;5073991;28;20455;-70
2022/01/12 02:03:58;;;;;;;30.77;14.57;;;;;;;;;;5073993;28;20463;-70
2022/01/12 02:06:26;;;;;;;33.23;15.73;;;;;;;;;;5073898;28;20502;-69
2022/01/12 02:08:53;;;;;;;30.27;15.40;;;;;;;;;;5073581;28;20456;-69
2022/01/12 02:11:25;;;;;;;41.83;17.10;;;;;;;;;;5073856;28;20550;-70
2022/01/12 02:13:52;;;;;;;30.50;16.57;;;;;;;;;;5073925;28;20909;-69
2022/01/12 02:16:24;;;;;;;34.17;15.47;;;;;;;;;;5073389;28;20475;-70
2022/01/12 02:19:10;;;;;;;44.63;21.10;;;;;;;;;;5073669;28;20478;-70
2022/01/12 02:35:34;;;;;;;34.37;16.47;;;;;;;;;;5073245;28;20493;-69
2022/01/12 02:40:52;;;;;;;34.07;16.90;;;;;;;;;;5073170;28;20489;-69
2022/01/12 02:43:30;;;;;;;31.93;16.13;;;;;;;;;;5073460;28;20445;-69
2022/01/12 02:51:33;;;;;;;29.60;15.60;;;;;;;;;;5073148;28;20908;-69
2022/01/12 02:54:01;;;;;;;36.60;17.97;;;;;;;;;;5073060;28;20446;-69
2022/01/12 02:56:29;;;;;;;42.33;18.90;;;;;;;;;;5072823;28;20473;-69
2022/01/12 02:58:58;;;;;;;34.00;17.33;;;;;;;;;;5073172;28;20483;-69
2022/01/12 03:04:11;;;;;;;33.07;17.27;;;;;;;;;;5072994;28;20411;-69
2022/01/12 03:06:41;;;;;;;33.83;16.73;;;;;;;;;;5073189;28;20467;-69
2022/01/12 03:09:11;;;;;;;32.93;19.30;;;;;;;;;;5072892;28;20452;-69
2022/01/12 03:11:39;;;;;;;35.30;16.80;;;;;;;;;;5073265;28;20444;-69
2022/01/12 03:14:06;;;;;;;38.07;17.60;;;;;;;;;;5073225;28;20928;-69
2022/01/12 03:16:34;;;;;;;31.90;16.13;;;;;;;;;;5072865;28;20478;-69
2022/01/12 03:19:02;;;;;;;33.70;16.47;;;;;;;;;;5072765;28;20479;-69
2022/01/12 03:21:30;;;;;;;33.73;17.13;;;;;;;;;;5073139;28;20455;-69
2022/01/12 03:23:58;;;;;;;34.73;17.00;;;;;;;;;;5073085;28;20452;-69
2022/01/12 03:26:28;;;;;;;40.67;19.70;;;;;;;;;;5072721;28;20471;-69
2022/01/12 03:28:56;;;;;;;29.70;18.03;;;;;;;;;;5072624;28;20491;-70
2022/01/12 03:31:24;;;;;;;35.30;19.10;;;;;;;;;;5072765;28;20440;-70
2022/01/12 03:33:57;;;;;;;34.20;17.27;;;;;;;;;;5072926;28;20452;-69
2022/01/12 03:36:42;;;;;;;39.93;19.93;;;;;;;;;;5072643;28;20483;-70
2022/01/12 03:39:11;;;;;;;38.20;17.60;;;;;;;;;;5072830;28;20529;-69
2022/01/12 03:41:40;;;;;;;30.30;18.03;;;;;;;;;;5072632;28;20432;-70
2022/01/12 03:44:09;;;;;;;34.17;16.20;;;;;;;;;;5073159;28;20523;-69
2022/01/12 03:46:37;;;;;;;37.20;18.83;;;;;;;;;;5072774;28;20475;-69
2022/01/12 03:49:04;;;;;;;36.60;18.83;;;;;;;;;;5072563;28;20444;-70
2022/01/12 03:51:31;;;;;;;41.00;17.60;;;;;;;;;;5072902;28;20455;-69
2022/01/12 03:53:59;;;;;;;36.13;18.20;;;;;;;;;;5072508;28;20448;-69
2022/01/12 03:56:26;;;;;;;35.37;17.40;;;;;;;;;;5074604;28;20478;-69
2022/01/12 03:58:54;;;;;;;31.50;17.60;;;;;;;;;;5076339;28;20494;-69
2022/01/12 04:01:21;;;;;;;33.70;20.07;;;;;;;;;;5076129;28;20451;-69
2022/01/12 04:03:59;;;;;;;33.10;17.37;;;;;;;;;;5076328;28;20455;-69
2022/01/12 04:09:11;;;;;;;39.53;16.87;;;;;;;;;;5076178;28;20419;-70
2022/01/12 04:11:38;;;;;;;35.50;17.50;;;;;;;;;;5075907;28;20455;-69
2022/01/12 04:14:06;;;;;;;46.30;20.87;;;;;;;;;;5075940;28;20448;-69
2022/01/12 04:16:34;;;;;;;44.13;20.07;;;;;;;;;;5076086;28;20471;-69
2022/01/12 04:19:01;;;;;;;53.50;22.10;;;;;;;;;;5076009;28;20487;-69
2022/01/12 04:21:30;;;;;;;45.90;19.77;;;;;;;;;;5076104;28;20448;-69
2022/01/12 04:23:57;;;;;;;51.10;22.37;;;;;;;;;;5075963;28;20941;-69
2022/01/12 04:26:25;;;;;;;43.30;19.83;;;;;;;;;;5075928;28;20475;-69
2022/01/12 04:28:53;;;;;;;39.03;20.50;;;;;;;;;;5075740;28;20464;-69
2022/01/12 04:31:21;;;;;;;46.37;21.30;;;;;;;;;;5075605;28;20440;-69
2022/01/12 04:33:48;;;;;;;53.87;22.77;;;;;;;;;;5075542;28;20451;-69
2022/01/12 04:36:16;;;;;;;37.77;18.73;;;;;;;;;;5075746;28;20479;-69
2022/01/12 04:38:44;;;;;;;39.87;18.03;;;;;;;;;;5075320;28;20487;-69
2022/01/12 04:41:11;;;;;;;55.60;25.70;;;;;;;;;;5075752;28;20780;-71
2022/01/12 04:43:40;;;;;;;69.50;19.20;;;;;;;;;;5075715;28;20451;-69
2022/01/12 04:46:35;;;;;;;76.70;22.97;;;;;;;;;;5075547;28;20476;-69
2022/01/12 04:49:26;;;;;;;39.90;19.60;;;;;;;;;;5075335;28;20445;-69
2022/01/12 04:51:53;;;;;;;46.43;21.27;;;;;;;;;;5075781;28;20903;-69
2022/01/12 04:54:21;;;;;;;70.23;21.50;;;;;;;;;;5075391;28;20651;-70
2022/01/12 04:56:48;;;;;;;112.83;24.53;;;;;;;;;;5075395;28;20472;-70
2022/01/12 04:59:15;;;;;;;119.53;24.97;;;;;;;;;;5075063;28;20487;-70
2022/01/12 05:01:50;;;;;;;71.53;22.47;;;;;;;;;;5075156;28;20940;-70
2022/01/12 05:07:25;;;;;;;46.50;19.37;;;;;;;;;;5074395;28;20416;-69
2022/01/12 05:12:47;;;;;;;61.03;20.90;;;;;;;;;;5075233;28;20792;-70
2022/01/12 05:12:52;;;;;;;49.27;20.60;;;;;;;;;;5074927;28;20509;-69
2022/01/12 05:15:27;;;;;;;38.80;18.27;;;;;;;;;;5074944;28;20478;-70
2022/01/12 05:17:54;;;;;;;44.30;20.00;;;;;;;;;;5075007;28;20435;-70
2022/01/12 05:20:23;;;;;;;49.40;21.80;;;;;;;;;;5074680;28;21011;-69
2022/01/12 05:22:51;;;;;;;40.27;21.33;;;;;;;;;;5074949;28;20447;-70
2022/01/12 05:25:18;;;;;;;41.77;21.20;;;;;;;;;;5074732;28;20476;-69
2022/01/12 05:27:45;;;;;;;44.33;21.13;;;;;;;;;;5074806;28;20458;-70
2022/01/12 05:30:13;;;;;;;43.50;20.30;;;;;;;;;;5074424;28;20827;-70
2022/01/12 05:32:41;;;;;;;40.10;18.67;;;;;;;;;;5074666;28;20793;-70
2022/01/12 05:35:10;;;;;;;34.00;18.87;;;;;;;;;;5074543;28;20521;-70
2022/01/12 05:37:39;;;;;;;38.43;19.53;;;;;;;;;;5074109;28;20501;-70
2022/01/12 05:40:07;;;;;;;44.70;21.47;;;;;;;;;;5074355;28;20487;-70
2022/01/12 05:42:34;;;;;;;41.10;20.30;;;;;;;;;;5074137;28;20451;-70
2022/01/12 05:45:01;;;;;;;37.47;20.77;;;;;;;;;;5073771;28;20471;-70
2022/01/12 05:47:40;;;;;;;38.33;18.43;;;;;;;;;;5074013;28;20537;-71
2022/01/12 05:50:06;;;;;;;37.00;20.10;;;;;;;;;;5074255;28;20554;-70
2022/01/12 05:52:33;;;;;;;40.80;19.57;;;;;;;;;;5073975;28;20459;-71
2022/01/12 05:55:03;;;;;;;36.90;20.63;;;;;;;;;;5073708;28;20476;-70
2022/01/12 05:57:30;;;;;;;36.30;18.03;;;;;;;;;;5073789;28;20473;-71
2022/01/12 05:59:58;;;;;;;41.33;20.77;;;;;;;;;;5073784;28;20491;-71
2022/01/12 06:02:25;;;;;;;46.73;21.87;;;;;;;;;;5073740;28;20447;-71
2022/01/12 06:04:52;;;;;;;40.77;21.70;;;;;;;;;;5073482;28;20486;-69
2022/01/12 06:07:19;;;;;;;33.83;17.87;;;;;;;;;;5073649;28;20448;-69
2022/01/12 06:09:46;;;;;;;36.97;19.97;;;;;;;;;;5073562;28;20936;-70
2022/01/12 06:12:15;;;;;;;41.03;22.23;;;;;;;;;;5073606;28;20452;-71
2022/01/12 06:14:42;;;;;;;44.27;21.30;;;;;;;;;;5073146;28;20448;-70
2022/01/12 06:17:09;;;;;;;40.73;21.37;;;;;;;;;;5073630;28;20459;-70
2022/01/12 06:19:36;;;;;;;39.43;19.77;;;;;;;;;;5073451;28;20483;-71
2022/01/12 06:22:04;;;;;;;42.67;21.17;;;;;;;;;;5073395;28;20452;-70
2022/01/12 06:24:31;;;;;;;41.10;21.80;;;;;;;;;;5073129;28;20448;-70
2022/01/12 06:26:58;;;;;;;42.53;20.80;;;;;;;;;;5073441;28;20472;-72
2022/01/12 06:29:39;;;;;;;32.73;19.20;;;;;;;;;;5073316;28;20482;-72
2022/01/12 06:32:07;;;;;;;37.37;19.00;;;;;;;;;;5073493;28;20865;-70
2022/01/12 06:34:34;;;;;;;40.90;18.93;;;;;;;;;;5072936;28;20454;-71
2022/01/12 06:37:01;;;;;;;47.57;21.97;;;;;;;;;;5072814;28;20993;-71
2022/01/12 06:39:29;;;;;;;30.43;15.30;;;;;;;;;;5073028;28;20487;-70
2022/01/12 06:41:56;;;;;;;37.83;17.60;;;;;;;;;;5073317;28;20459;-70
2022/01/12 06:44:25;;;;;;;43.23;19.00;;;;;;;;;;5072984;28;20476;-71
2022/01/12 06:46:56;;;;;;;40.90;18.63;;;;;;;;;;5072961;28;20521;-70
2022/01/12 06:49:23;;;;;;;46.00;20.00;;;;;;;;;;5073117;28;20459;-71
2022/01/12 06:51:50;;;;;;;45.70;19.17;;;;;;;;;;5073086;28;20457;-70
2022/01/12 06:54:17;;;;;;;32.07;17.10;;;;;;;;;;5072843;28;20459;-70
2022/01/12 06:56:45;;;;;;;36.27;16.93;;;;;;;;;;5072860;28;20471;-69
2022/01/12 06:59:12;;;;;;;31.77;15.00;;;;;;;;;;5073151;28;21004;-70
2022/01/12 07:01:39;;;;;;;44.03;19.07;;;;;;;;;;5072976;28;20455;-69
2022/01/12 07:04:07;;;;;;;40.07;19.47;;;;;;;;;;5072890;28;20483;-69
2022/01/12 07:06:35;;;;;;;43.80;20.63;;;;;;;;;;5072748;28;20476;-70
2022/01/12 07:09:02;;;;;;;39.90;19.13;;;;;;;;;;5073031;28;20531;-70
2022/01/12 07:11:29;;;;;;;42.53;21.40;;;;;;;;;;5072890;28;20467;-71
2022/01/12 07:13:57;;;;;;;39.57;20.13;;;;;;;;;;5072585;28;20463;-70
2022/01/12 07:16:25;;;;;;;44.03;19.40;;;;;;;;;;5072700;28;20487;-70
2022/01/12 07:18:52;;;;;;;47.07;20.83;;;;;;;;;;5072767;28;20487;-70
2022/01/12 07:21:20;;;;;;;48.70;21.40;;;;;;;;;;5072831;28;20460;-70
2022/01/12 07:23:54;;;;;;;48.53;22.10;;;;;;;;;;5072594;28;20455;-70
2022/01/12 07:26:21;;;;;;;42.03;20.50;;;;;;;;;;5072774;28;20522;-70
2022/01/12 07:28:48;;;;;;;38.03;21.43;;;;;;;;;;5072717;28;20941;-70
2022/01/12 07:31:15;;;;;;;37.70;18.80;;;;;;;;;;5074910;28;20456;-70
2022/01/12 07:33:43;;;;;;;44.27;19.50;;;;;;;;;;5076484;28;20481;-71
2022/01/12 07:36:10;;;;;;;43.83;17.47;;;;;;;;;;5076542;28;20495;-70
2022/01/12 07:38:38;;;;;;;39.67;22.23;;;;;;;;;;5075754;28;20451;-70
2022/01/12 07:41:05;;;;;;;41.13;21.83;;;;;;;;;;5076514;28;20454;-70
2022/01/12 07:43:32;;;;;;;39.73;21.90;;;;;;;;;;5076305;28;20462;-71
2022/01/12 07:46:00;;;;;;;47.77;22.80;;;;;;;;;;5076378;28;20471;-70
2022/01/12 07:48:27;;;;;;;47.23;21.67;;;;;;;;;;5076315;28;20933;-70
2022/01/12 07:50:54;;;;;;;57.50;25.67;;;;;;;;;;5076375;28;20447;-70
2022/01/12 07:53:21;;;;;;;53.27;25.90;;;;;;;;;;5076358;28;20462;-73
2022/01/12 07:55:49;;;;;;;49.00;22.17;;;;;;;;;;5075973;28;20478;-70
2022/01/12 07:58:17;;;;;;;47.90;20.13;;;;;;;;;;5076401;28;20444;-70
2022/01/12 08:00:44;;;;;;;50.57;22.73;;;;;;;;;;5075875;28;20487;-70
2022/01/12 08:03:12;;;;;;;44.13;19.67;;;;;;;;;;5076187;28;20455;-70
2022/01/12 08:05:39;;;;;;;48.60;21.20;;;;;;;;;;5075699;28;20472;-70
2022/01/12 08:08:06;;;;;;;52.80;25.00;;;;;;;;;;5076031;28;20451;-70
2022/01/12 08:10:33;;;;;;;57.83;24.97;;;;;;;;;;5075998;28;20447;-70
2022/01/12 08:13:02;;;;;;;45.50;20.73;;;;;;;;;;5075996;28;20459;-69
2022/01/12 08:15:29;;;;;;;50.07;22.83;;;;;;;;;;5075515;28;20471;-71
2022/01/12 08:17:56;;;;;;;48.50;19.57;;;;;;;;;;5075829;28;20447;-70
2022/01/12 08:20:26;;;;;;;54.93;25.37;;;;;;;;;;5075695;28;20506;-71
2022/01/12 08:22:54;;;;;;;50.83;23.70;;;;;;;;;;5075973;28;20898;-69
2022/01/12 08:25:21;;;;;;;57.10;24.23;;;;;;;;;;5075455;28;20482;-69
2022/01/12 08:27:48;;;;;;;46.73;24.07;;;;;;;;;;5075517;28;20534;-71
2022/01/12 08:30:18;;;;;;;41.87;22.93;;;;;;;;;;5075604;28;20455;-70
2022/01/12 08:32:46;;;;;;;39.20;19.87;;;;;;;;;;5075578;28;20448;-70
2022/01/12 08:35:13;;;;;;;44.07;21.80;;;;;;;;;;5075181;28;20479;-70
2022/01/12 08:37:41;;;;;;;44.70;21.20;;;;;;;;;;5074903;28;20443;-70
2022/01/12 08:40:09;;;;;;;48.73;22.83;;;;;;;;;;5075017;28;20487;-70
2022/01/12 08:42:36;;;;;;;52.47;26.03;;;;;;;;;;5074147;28;20452;-70
2022/01/12 08:45:04;;;;;;;44.30;21.00;;;;;;;;;;5075042;28;20472;-70
2022/01/12 08:47:33;;;;;;;63.37;26.00;;;;;;;;;;5075247;28;20820;-70
2022/01/12 08:50:00;;;;;;;44.67;20.67;;;;;;;;;;5075335;28;20452;-70
2022/01/12 08:52:29;;;;;;;43.67;21.00;;;;;;;;;;5075164;28;20825;-71
2022/01/12 08:54:56;;;;;;;42.33;21.07;;;;;;;;;;5074862;28;20530;-70
2022/01/12 08:57:23;;;;;;;50.53;25.10;;;;;;;;;;5075143;28;20459;-72
2022/01/12 08:59:50;;;;;;;44.67;23.10;;;;;;;;;;5074922;28;20483;-70
2022/01/12 09:02:18;;;;;;;46.37;24.77;;;;;;;;;;5075088;28;20452;-70
2022/01/12 09:04:46;;;;;;;38.57;20.30;;;;;;;;;;5074194;28;20828;-70
2022/01/12 09:07:13;;;;;;;46.40;21.00;;;;;;;;;;5074832;28;20452;-71
2022/01/12 09:09:40;;;;;;;38.07;22.30;;;;;;;;;;5074701;28;20448;-71
2022/01/12 09:12:08;;;;;;;47.80;24.30;;;;;;;;;;5074716;28;20483;-70
2022/01/12 09:14:36;;;;;;;44.47;21.07;;;;;;;;;;5074283;28;20458;-71
2022/01/12 09:17:03;;;;;;;42.80;23.97;;;;;;;;;;5074611;28;20459;-70
2022/01/12 09:19:30;;;;;;;41.93;19.80;;;;;;;;;;5074523;28;20479;-70
2022/01/12 09:21:59;;;;;;;38.90;21.50;;;;;;;;;;5055951;28;20479;-70
2022/01/12 09:24:26;;;;;;;44.27;20.23;;;;;;;;;;5064982;28;20463;-73
2022/01/12 09:26:53;;;;;;;43.43;21.10;;;;;;;;;;5072924;28;20470;-71
2022/01/12 09:29:20;;;;;;;37.90;19.60;;;;;;;;;;5073121;28;20481;-71
2022/01/12 09:31:47;;;;;;;31.70;17.60;;;;;;;;;;5072645;28;20459;-71
2022/01/12 09:34:15;;;;;;;41.70;22.20;;;;;;;;;;5072838;28;20822;-71
2022/01/12 09:36:42;;;;;;;35.73;19.20;;;;;;;;;;5072659;28;20479;-71
2022/01/12 09:39:11;;;;;;;35.27;19.23;;;;;;;;;;5072325;28;20458;-71
2022/01/12 09:41:38;;;;;;;45.73;21.13;;;;;;;;;;5072694;28;20459;-70
2022/01/12 09:44:05;;;;;;;45.47;22.63;;;;;;;;;;5072547;28;20454;-71
2022/01/12 09:46:33;;;;;;;34.87;18.30;;;;;;;;;;5072343;28;20475;-71
2022/01/12 09:49:01;;;;;;;39.07;18.53;;;;;;;;;;5072595;28;20463;-72
2022/01/12 09:51:28;;;;;;;38.10;17.80;;;;;;;;;;5072489;28;20459;-72
2022/01/12 09:53:56;;;;;;;35.77;17.53;;;;;;;;;;5072109;28;20460;-71
2022/01/12 09:56:26;;;;;;;38.40;18.33;;;;;;;;;;5072535;28;20524;-71
2022/01/12 09:58:54;;;;;;;40.80;19.50;;;;;;;;;;5072614;28;20452;-71
2022/01/12 10:01:24;;;;;;;43.03;21.67;;;;;;;;;;5072056;28;20491;-73
2022/01/12 10:03:51;;;;;;;40.87;20.60;;;;;;;;;;5072094;28;20458;-70
2022/01/12 10:06:18;;;;;;;37.00;17.83;;;;;;;;;;5072204;28;20468;-72
2022/01/12 10:08:45;;;;;;;41.27;18.90;;;;;;;;;;5071954;28;20452;-71
2022/01/12 10:11:15;;;;;;;45.60;19.70;;;;;;;;;;5072322;28;20936;-70
2022/01/12 10:13:43;;;;;;;42.10;18.70;;;;;;;;;;5071966;28;20448;-69
2022/01/12 10:16:11;;;;;;;36.57;18.37;;;;;;;;;;5071654;28;20480;-70
2022/01/12 10:18:46;;;;;;;35.20;17.90;;;;;;;;;;5071917;28;20463;-71
2022/01/12 10:21:13;;;;;;;31.80;16.60;;;;;;;;;;5072251;28;20558;-70
2022/01/12 10:23:40;;;;;;;32.00;16.80;;;;;;;;;;5071886;28;20979;-71
2022/01/12 10:26:09;;;;;;;36.30;18.13;;;;;;;;;;5071981;28;20468;-71
2022/01/12 10:28:36;;;;;;;40.27;19.83;;;;;;;;;;5071680;28;20456;-70
2022/01/12 10:31:05;;;;;;;39.17;20.40;;;;;;;;;;5072024;28;20468;-71
2022/01/12 10:33:33;;;;;;;34.47;18.30;;;;;;;;;;5071883;28;20517;-71
2022/01/12 10:36:01;;;;;;;36.63;17.43;;;;;;;;;;5071898;28;20476;-71
2022/01/12 10:38:29;;;;;;;37.90;19.03;;;;;;;;;;5071196;28;20455;-71
2022/01/12 10:40:57;;;;;;;41.93;20.40;;;;;;;;;;5071796;28;21014;-73
2022/01/12 10:43:28;;;;;;;38.33;18.17;;;;;;;;;;5071790;28;20944;-71
2022/01/12 10:45:56;;;;;;;41.87;20.10;;;;;;;;;;5071515;28;20479;-70
2022/01/12 10:48:25;;;;;;;30.60;17.50;;;;;;;;;;5071869;28;20448;-70
2022/01/12 10:50:55;;;;;;;40.43;18.87;;;;;;;;;;5071673;28;20443;-71
2022/01/12 10:53:28;;;;;;;41.47;21.00;;;;;;;;;;5071733;28;20460;-71
2022/01/12 10:56:01;;;;;;;36.63;19.60;;;;;;;;;;5071423;28;20883;-71
2022/01/12 10:58:28;;;;;;;38.87;19.73;;;;;;;;;;5071591;28;20461;-70
2022/01/12 11:00:56;;;;;;;40.03;19.13;;;;;;;;;;5071412;28;20498;-70
2022/01/12 11:03:25;;;;;;;32.00;16.60;;;;;;;;;;5071890;28;20971;-71
2022/01/12 11:05:52;;;;;;;38.07;18.00;;;;;;;;;;5070814;28;20518;-71
2022/01/12 11:08:19;;;;;;;37.83;19.10;;;;;;;;;;5071282;28;20447;-72
2022/01/12 11:10:46;;;;;;;45.47;20.80;;;;;;;;;;5071293;28;20451;-71
2022/01/12 11:13:14;;;;;;;35.33;19.00;;;;;;;;;;5071510;28;20974;-71
2022/01/12 11:15:41;;;;;;;46.80;24.27;;;;;;;;;;5071001;28;20467;-69
2022/01/12 11:18:09;;;;;;;46.23;20.07;;;;;;;;;;5072527;28;20945;-69
2022/01/12 11:20:39;;;;;;;38.00;18.80;;;;;;;;;;5072625;28;20483;-70
2022/01/12 11:23:08;;;;;;;42.37;21.00;;;;;;;;;;5072746;28;20455;-71
2022/01/12 11:25:36;;;;;;;42.83;21.50;;;;;;;;;;5072354;28;20475;-70
2022/01/12 11:28:07;;;;;;;36.17;20.47;;;;;;;;;;5072863;28;20454;-70
2022/01/12 11:30:34;;;;;;;41.73;19.57;;;;;;;;;;5072593;28;20462;-70
2022/01/12 11:33:02;;;;;;;46.00;21.00;;;;;;;;;;5072722;28;20790;-70
2022/01/12 11:35:32;;;;;;;39.90;20.00;;;;;;;;;;5072284;28;21012;-71
2022/01/12 11:38:01;;;;;;;34.03;18.60;;;;;;;;;;5072286;28;20525;-69
2022/01/12 11:40:50;;;;;;;46.27;21.57;;;;;;;;;;5072383;28;20487;-70
2022/01/12 11:43:21;;;;;;;43.83;20.80;;;;;;;;;;5068253;28;20452;-70
2022/01/12 11:46:01;;;;;;;39.70;20.90;;;;;;;;;;5072167;28;20842;-71
2022/01/12 11:48:32;;;;;;;43.63;20.03;;;;;;;;;;5072574;28;20447;-70
2022/01/12 11:50:59;;;;;;;37.67;19.17;;;;;;;;;;5072655;28;20440;-69
2022/01/12 11:53:30;;;;;;;43.80;21.97;;;;;;;;;;5072465;28;20447;-70
2022/01/12 11:56:00;;;;;;;39.27;18.83;;;;;;;;;;5072350;28;20463;-70
2022/01/12 11:58:27;;;;;;;37.77;17.73;;;;;;;;;;5072305;28;20443;-71
2022/01/12 12:00:54;;;;;;;52.70;26.37;;;;;;;;;;5072449;28;20491;-69
2022/01/12 12:03:21;;;;;;;43.77;22.50;;;;;;;;;;5072319;28;20462;-69
2022/01/12 12:05:55;;;;;;;48.30;21.40;;;;;;;;;;5072081;28;20468;-71
2022/01/12 12:08:25;;;;;;;46.83;25.27;;;;;;;;;;5072364;28;20816;-69
2022/01/12 12:10:54;;;;;;;30.30;16.97;;;;;;;;;;5072436;28;20534;-70
2022/01/12 12:13:22;;;;;;;51.03;22.27;;;;;;;;;;5072232;28;20856;-71
2022/01/12 12:15:51;;;;;;;48.77;22.50;;;;;;;;;;5071978;28;20471;-70
2022/01/12 12:18:18;;;;;;;48.13;21.27;;;;;;;;;;5075663;28;20455;-70
2022/01/12 12:20:45;;;;;;;48.13;21.40;;;;;;;;;;5075687;28;20491;-71
2022/01/12 12:23:13;;;;;;;50.13;23.90;;;;;;;;;;5075703;28;20458;-71
2022/01/12 12:25:40;;;;;;;43.30;22.20;;;;;;;;;;5075364;28;20984;-70
2022/01/12 12:28:09;;;;;;;38.57;22.03;;;;;;;;;;5075746;28;20448;-70
2022/01/12 12:30:38;;;;;;;43.17;23.53;;;;;;;;;;5075407;28;20972;-71
2022/01/12 12:33:06;;;;;;;47.40;23.87;;;;;;;;;;5053341;28;20456;-71
2022/01/12 12:35:34;;;;;;;54.00;24.87;;;;;;;;;;5053861;28;20501;-71
2022/01/12 12:38:03;;;;;;;49.43;24.30;;;;;;;;;;5053772;28;20460;-71
2022/01/12 12:40:31;;;;;;;47.47;24.07;;;;;;;;;;5053710;28;20489;-71
2022/01/12 12:43:03;;;;;;;45.00;20.50;;;;;;;;;;5054249;28;20913;-70
2022/01/12 12:45:38;;;;;;;43.63;19.30;;;;;;;;;;5053790;28;21095;-73
2022/01/12 12:48:06;;;;;;;43.73;21.40;;;;;;;;;;5053857;28;20942;-70
2022/01/12 12:50:33;;;;;;;41.90;19.60;;;;;;;;;;5053697;28;20445;-70
2022/01/12 12:53:00;;;;;;;38.37;19.17;;;;;;;;;;5053674;28;20471;-70
2022/01/12 12:55:27;;;;;;;38.93;18.03;;;;;;;;;;5053340;28;20978;-70
2022/01/12 12:57:56;;;;;;;38.53;20.77;;;;;;;;;;5053748;28;20475;-72
2022/01/12 13:00:24;;;;;;;48.10;19.87;;;;;;;;;;5053368;28;20452;-72
2022/01/12 13:02:53;;;;;;;37.67;19.67;;;;;;;;;;5057323;28;20510;-71
2022/01/12 13:05:22;;;;;;;39.70;18.67;;;;;;;;;;5073122;28;20478;-72
2022/01/12 13:07:49;;;;;;;43.80;18.60;;;;;;;;;;5073082;28;20456;-71
2022/01/12 13:10:18;;;;;;;37.63;19.53;;;;;;;;;;5073610;28;20878;-71
2022/01/12 13:12:46;;;;;;;44.17;18.60;;;;;;;;;;5073082;28;20456;-70
2022/01/12 13:15:18;;;;;;;43.00;24.03;;;;;;;;;;5072929;28;20476;-72
2022/01/12 13:17:45;;;;;;;45.73;21.80;;;;;;;;;;5073030;28;20444;-71
2022/01/12 13:23:07;;;;;;;42.13;19.57;;;;;;;;;;5073131;28;20923;-71
2022/01/12 13:25:34;;;;;;;43.10;18.27;;;;;;;;;;5072882;28;20468;-71
2022/01/12 13:28:01;;;;;;;37.97;17.57;;;;;;;;;;5072271;28;20444;-71
2022/01/12 13:30:30;;;;;;;37.83;19.87;;;;;;;;;;5072479;28;20460;-70
2022/01/12 13:32:58;;;;;;;33.43;18.00;;;;;;;;;;5072851;28;20451;-72
2022/01/12 13:35:30;;;;;;;48.97;19.50;;;;;;;;;;5072492;28;20471;-71
2022/01/12 13:37:58;;;;;;;37.30;18.20;;;;;;;;;;5072480;28;20473;-72
2022/01/12 13:40:26;;;;;;;45.00;19.23;;;;;;;;;;5072748;28;20450;-71
2022/01/12 13:42:54;;;;;;;35.77;18.87;;;;;;;;;;5072250;28;20447;-70
2022/01/12 13:45:24;;;;;;;39.53;19.90;;;;;;;;;;5072341;28;20483;-71
2022/01/12 13:47:57;;;;;;;54.10;21.67;;;;;;;;;;5072479;28;20460;-70
2022/01/12 13:50:30;;;;;;;39.70;17.07;;;;;;;;;;5072656;28;20873;-71
2022/01/12 13:52:58;;;;;;;35.60;19.97;;;;;;;;;;5072532;28;20488;-70
2022/01/12 13:55:25;;;;;;;40.70;18.93;;;;;;;;;;5072227;28;20471;-70
2022/01/12 13:58:04;;;;;;;41.90;19.27;;;;;;;;;;5072266;28;20448;-70
2022/01/12 14:00:32;;;;;;;47.40;20.80;;;;;;;;;;5072072;28;20448;-71
2022/01/12 14:02:59;;;;;;;44.50;19.07;;;;;;;;;;5072377;28;20456;-70
2022/01/12 14:05:33;;;;;;;51.07;22.47;;;;;;;;;;5071778;28;20480;-72
2022/01/12 14:08:10;;;;;;;44.70;21.10;;;;;;;;;;5072149;28;20455;-69
2022/01/12 14:10:37;;;;;;;38.47;20.40;;;;;;;;;;5071827;28;20459;-72
2022/01/12 14:13:04;;;;;;;43.50;20.20;;;;;;;;;;5072112;28;20566;-70
2022/01/12 14:15:33;;;;;;;32.37;16.17;;;;;;;;;;5071684;28;20846;-70
2022/01/12 14:18:01;;;;;;;39.57;18.70;;;;;;;;;;5072157;28;20945;-71
2022/01/12 14:20:36;;;;;;;33.73;16.90;;;;;;;;;;5071907;28;20451;-71
2022/01/12 14:23:05;;;;;;;38.03;19.33;;;;;;;;;;5072107;28;20447;-70
2022/01/12 14:25:37;;;;;;;38.80;22.20;;;;;;;;;;5071699;28;20832;-70
2022/01/12 14:28:05;;;;;;;49.37;24.57;;;;;;;;;;5072142;28;20455;-70
2022/01/12 14:30:32;;;;;;;33.63;17.57;;;;;;;;;;5071058;28;20455;-70
2022/01/12 14:32:59;;;;;;;38.10;19.80;;;;;;;;;;5071215;28;20448;-70
2022/01/12 14:35:26;;;;;;;44.83;22.43;;;;;;;;;;5071611;28;20837;-71
2022/01/12 14:37:54;;;;;;;47.00;21.83;;;;;;;;;;5071273;28;20928;-71
2022/01/12 14:40:23;;;;;;;35.77;18.57;;;;;;;;;;5070823;28;20964;-70
2022/01/12 14:42:52;;;;;;;50.00;22.03;;;;;;;;;;5071470;28;20487;-71
2022/01/12 14:45:22;;;;;;;40.40;20.80;;;;;;;;;;5071406;28;20874;-71
2022/01/12 14:47:50;;;;;;;44.90;21.90;;;;;;;;;;5071860;28;20456;-71
2022/01/12 14:50:17;;;;;;;56.67;23.10;;;;;;;;;;5071946;28;20467;-72
2022/01/12 14:52:45;;;;;;;48.67;24.20;;;;;;;;;;5071353;28;20451;-71
2022/01/12 14:55:12;;;;;;;43.90;19.97;;;;;;;;;;5071597;28;20480;-71
2022/01/12 14:57:41;;;;;;;45.20;21.90;;;;;;;;;;5071635;28;20452;-71
2022/01/12 15:00:12;;;;;;;47.03;20.33;;;;;;;;;;5071639;28;20817;-71
2022/01/12 15:02:39;;;;;;;39.83;19.83;;;;;;;;;;5071453;28;20506;-71
2022/01/12 15:05:06;;;;;;;46.90;22.83;;;;;;;;;;5071429;28;20973;-71
2022/01/12 15:07:33;;;;;;;41.90;21.90;;;;;;;;;;5070925;28;20455;-71
2022/01/12 15:10:01;;;;;;;46.13;20.83;;;;;;;;;;5071679;28;20452;-71
2022/01/12 15:12:33;;;;;;;57.30;26.20;;;;;;;;;;5071556;28;20451;-71
2022/01/12 15:15:01;;;;;;;60.30;27.07;;;;;;;;;;5069487;28;20482;-69
2022/01/12 15:17:30;;;;;;;43.30;19.70;;;;;;;;;;5071180;28;20551;-70
2022/01/12 15:19:58;;;;;;;56.83;23.53;;;;;;;;;;5071245;28;20479;-69